sensor_id;sensor_type;location;lat;lon;timestamp;temperature;humidity
13892;DHT22;7016;48.172;8.058;2023-03-21T00:00:18;7.60;99.90
13892;DHT22;7016;48.172;8.058;2023-03-21T00:02:45;7.60;99.90
13892;DHT22;7016;48.172;8.058;2023-03-21T00:05:10;7.50;99.90
13892;DHT22;7016;48.172;8.058;2023-03-21T00:07:36;7.50;99.90
13892;DHT22;7016;48.172;8.058;2023-03-21T00:10:02;7.50;99.90
13892;DHT22;7016;48.172;8.058;2023-03-21T00:12:28;7.70;99.90
13892;DHT22;7016;48.172;8.058;2023-03-21T00:15:00;7.70;99.90
13892;DHT22;7016;48.172;8.058;2023-03-21T00:17:31;7.60;99.90
13892;DHT22;7016;48.172;8.058;2023-03-21T00:19:57;7.50;99.90
13892;DHT22;7016;48.172;8.058;2023-03-21T00:22:24;7.40;99.90
13892;DHT22;7016;48.172;8.058;2023-03-21T00:24:50;7.40;99.90
13892;DHT22;7016;48.172;8.058;2023-03-21T00:27:16;7.40;99.90
13892;DHT22;7016;48.172;8.058;2023-03-21T00:29:45;7.40;99.90
13892;DHT22;7016;48.172;8.058;2023-03-21T00:32:11;7.50;99.90
13892;DHT22;7016;48.172;8.058;2023-03-21T00:34:37;7.30;99.90
13892;DHT22;7016;48.172;8.058;2023-03-21T00:37:03;7.30;99.90
13892;DHT22;7016;48.172;8.058;2023-03-21T00:39:31;7.30;99.90
13892;DHT22;7016;48.172;8.058;2023-03-21T00:41:57;7.30;99.90
13892;DHT22;7016;48.172;8.058;2023-03-21T00:44:23;7.20;99.90
13892;DHT22;7016;48.172;8.058;2023-03-21T00:46:50;7.20;99.90
13892;DHT22;7016;48.172;8.058;2023-03-21T00:49:16;7.10;99.90
13892;DHT22;7016;48.172;8.058;2023-03-21T00:51:42;7.10;99.90
13892;DHT22;7016;48.172;8.058;2023-03-21T00:54:10;7.00;99.90
13892;DHT22;7016;48.172;8.058;2023-03-21T00:56:36;6.90;99.90
13892;DHT22;7016;48.172;8.058;2023-03-21T00:59:03;7.00;99.90
13892;DHT22;7016;48.172;8.058;2023-03-21T01:01:28;6.90;99.90
13892;DHT22;7016;48.172;8.058;2023-03-21T01:04:00;6.70;99.90
13892;DHT22;7016;48.172;8.058;2023-03-21T01:06:38;6.90;99.90
13892;DHT22;7016;48.172;8.058;2023-03-21T01:09:05;6.90;99.90
13892;DHT22;7016;48.172;8.058;2023-03-21T01:11:32;6.80;99.90
13892;DHT22;7016;48.172;8.058;2023-03-21T01:13:59;6.70;99.90
13892;DHT22;7016;48.172;8.058;2023-03-21T01:16:24;6.70;99.90
13892;DHT22;7016;48.172;8.058;2023-03-21T01:18:50;6.70;99.90
13892;DHT22;7016;48.172;8.058;2023-03-21T01:21:16;6.80;99.90
13892;DHT22;7016;48.172;8.058;2023-03-21T01:23:42;6.60;99.90
13892;DHT22;7016;48.172;8.058;2023-03-21T01:26:09;6.60;99.90
13892;DHT22;7016;48.172;8.058;2023-03-21T01:28:36;6.40;99.90
13892;DHT22;7016;48.172;8.058;2023-03-21T01:31:03;6.50;99.90
13892;DHT22;7016;48.172;8.058;2023-03-21T01:33:30;6.50;99.90
13892;DHT22;7016;48.172;8.058;2023-03-21T01:35:57;6.50;99.90
13892;DHT22;7016;48.172;8.058;2023-03-21T01:38:23;6.40;99.90
13892;DHT22;7016;48.172;8.058;2023-03-21T01:40:50;6.40;99.90
13892;DHT22;7016;48.172;8.058;2023-03-21T01:43:22;6.30;99.90
13892;DHT22;7016;48.172;8.058;2023-03-21T01:46:20;6.40;99.90
13892;DHT22;7016;48.172;8.058;2023-03-21T01:48:56;6.50;99.90
13892;DHT22;7016;48.172;8.058;2023-03-21T01:51:25;6.60;99.90
13892;DHT22;7016;48.172;8.058;2023-03-21T01:53:52;6.60;99.90
13892;DHT22;7016;48.172;8.058;2023-03-21T01:56:32;6.50;99.90
13892;DHT22;7016;48.172;8.058;2023-03-21T02:00:03;6.50;99.90
13892;DHT22;7016;48.172;8.058;2023-03-21T02:02:00;6.40;99.90
13892;DHT22;7016;48.172;8.058;2023-03-21T02:04:32;6.10;99.90
13892;DHT22;7016;48.172;8.058;2023-03-21T02:07:04;6.10;99.90
13892;DHT22;7016;48.172;8.058;2023-03-21T02:09:33;6.00;99.90
13892;DHT22;7016;48.172;8.058;2023-03-21T02:11:59;5.90;99.90
13892;DHT22;7016;48.172;8.058;2023-03-21T02:14:25;5.90;99.90
13892;DHT22;7016;48.172;8.058;2023-03-21T02:17:01;5.90;99.90
13892;DHT22;7016;48.172;8.058;2023-03-21T02:20:32;5.90;99.90
13892;DHT22;7016;48.172;8.058;2023-03-21T02:22:51;6.00;99.90
13892;DHT22;7016;48.172;8.058;2023-03-21T02:28:10;6.20;99.90
13892;DHT22;7016;48.172;8.058;2023-03-21T02:41:31;6.10;99.90
13892;DHT22;7016;48.172;8.058;2023-03-21T02:46:40;5.90;99.90
13892;DHT22;7016;48.172;8.058;2023-03-21T02:49:30;6.00;99.90
13892;DHT22;7016;48.172;8.058;2023-03-21T02:51:58;6.00;99.90
13892;DHT22;7016;48.172;8.058;2023-03-21T02:54:26;5.90;99.90
13892;DHT22;7016;48.172;8.058;2023-03-21T02:56:55;5.80;99.90
13892;DHT22;7016;48.172;8.058;2023-03-21T02:59:23;5.70;99.90
13892;DHT22;7016;48.172;8.058;2023-03-21T03:01:51;5.70;99.90
13892;DHT22;7016;48.172;8.058;2023-03-21T03:04:23;5.70;99.90
13892;DHT22;7016;48.172;8.058;2023-03-21T03:15:35;5.70;99.90
13892;DHT22;7016;48.172;8.058;2023-03-21T03:18:18;5.80;99.90
13892;DHT22;7016;48.172;8.058;2023-03-21T03:21:04;5.70;99.90
13892;DHT22;7016;48.172;8.058;2023-03-21T03:24:00;5.80;99.90
13892;DHT22;7016;48.172;8.058;2023-03-21T03:26:36;5.70;99.90
13892;DHT22;7016;48.172;8.058;2023-03-21T03:29:07;5.60;99.90
13892;DHT22;7016;48.172;8.058;2023-03-21T03:31:47;5.40;99.90
13892;DHT22;7016;48.172;8.058;2023-03-21T03:34:17;5.30;99.90
13892;DHT22;7016;48.172;8.058;2023-03-21T03:36:47;5.40;99.90
13892;DHT22;7016;48.172;8.058;2023-03-21T03:39:17;5.30;99.90
13892;DHT22;7016;48.172;8.058;2023-03-21T03:41:54;5.10;99.90
13892;DHT22;7016;48.172;8.058;2023-03-21T03:44:22;5.30;99.90
13892;DHT22;7016;48.172;8.058;2023-03-21T03:49:56;5.40;99.90
13892;DHT22;7016;48.172;8.058;2023-03-21T03:52:43;5.40;99.90
13892;DHT22;7016;48.172;8.058;2023-03-21T03:55:12;5.30;99.90
13892;DHT22;7016;48.172;8.058;2023-03-21T03:57:39;5.30;99.90
13892;DHT22;7016;48.172;8.058;2023-03-21T04:00:05;5.30;99.90
13892;DHT22;7016;48.172;8.058;2023-03-21T04:02:36;5.20;99.90
13892;DHT22;7016;48.172;8.058;2023-03-21T04:05:02;5.40;99.90
13892;DHT22;7016;48.172;8.058;2023-03-21T04:07:29;5.30;99.90
13892;DHT22;7016;48.172;8.058;2023-03-21T04:09:54;5.30;99.90
13892;DHT22;7016;48.172;8.058;2023-03-21T04:12:20;5.30;99.90
13892;DHT22;7016;48.172;8.058;2023-03-21T04:14:46;5.10;99.90
13892;DHT22;7016;48.172;8.058;2023-03-21T04:17:11;5.10;99.90
13892;DHT22;7016;48.172;8.058;2023-03-21T04:19:37;5.10;99.90
13892;DHT22;7016;48.172;8.058;2023-03-21T04:22:03;5.20;99.90
13892;DHT22;7016;48.172;8.058;2023-03-21T04:24:28;5.20;99.90
13892;DHT22;7016;48.172;8.058;2023-03-21T04:26:58;5.20;99.90
13892;DHT22;7016;48.172;8.058;2023-03-21T04:29:24;5.20;99.90
13892;DHT22;7016;48.172;8.058;2023-03-21T04:31:50;5.20;99.90
13892;DHT22;7016;48.172;8.058;2023-03-21T04:34:16;5.10;99.90
13892;DHT22;7016;48.172;8.058;2023-03-21T04:36:41;5.00;99.90
13892;DHT22;7016;48.172;8.058;2023-03-21T04:39:11;5.00;99.90
13892;DHT22;7016;48.172;8.058;2023-03-21T04:41:39;5.00;99.90
13892;DHT22;7016;48.172;8.058;2023-03-21T04:44:05;5.10;99.90
13892;DHT22;7016;48.172;8.058;2023-03-21T04:46:31;5.00;99.90
13892;DHT22;7016;48.172;8.058;2023-03-21T04:48:57;5.10;99.90
13892;DHT22;7016;48.172;8.058;2023-03-21T04:51:23;5.10;99.90
13892;DHT22;7016;48.172;8.058;2023-03-21T04:53:49;5.10;99.90
13892;DHT22;7016;48.172;8.058;2023-03-21T04:56:17;4.90;99.90
13892;DHT22;7016;48.172;8.058;2023-03-21T04:58:43;5.20;99.90
13892;DHT22;7016;48.172;8.058;2023-03-21T05:01:09;5.00;99.90
13892;DHT22;7016;48.172;8.058;2023-03-21T05:03:39;5.10;99.90
13892;DHT22;7016;48.172;8.058;2023-03-21T05:06:08;5.00;99.90
13892;DHT22;7016;48.172;8.058;2023-03-21T05:08:34;5.10;99.90
13892;DHT22;7016;48.172;8.058;2023-03-21T05:11:01;5.10;99.90
13892;DHT22;7016;48.172;8.058;2023-03-21T05:13:27;5.00;99.90
13892;DHT22;7016;48.172;8.058;2023-03-21T05:15:53;4.90;99.90
13892;DHT22;7016;48.172;8.058;2023-03-21T05:18:18;4.80;99.90
13892;DHT22;7016;48.172;8.058;2023-03-21T05:20:50;4.70;99.90
13892;DHT22;7016;48.172;8.058;2023-03-21T05:23:23;4.60;99.90
13892;DHT22;7016;48.172;8.058;2023-03-21T05:25:48;4.50;99.90
13892;DHT22;7016;48.172;8.058;2023-03-21T05:28:15;4.70;99.90
13892;DHT22;7016;48.172;8.058;2023-03-21T05:30:44;4.70;99.90
13892;DHT22;7016;48.172;8.058;2023-03-21T05:33:11;4.70;99.90
13892;DHT22;7016;48.172;8.058;2023-03-21T05:35:37;4.90;99.90
13892;DHT22;7016;48.172;8.058;2023-03-21T05:38:03;4.90;99.90
13892;DHT22;7016;48.172;8.058;2023-03-21T05:40:29;4.90;99.90
13892;DHT22;7016;48.172;8.058;2023-03-21T05:42:55;4.90;99.90
13892;DHT22;7016;48.172;8.058;2023-03-21T05:45:21;4.90;99.90
13892;DHT22;7016;48.172;8.058;2023-03-21T05:47:46;4.90;99.90
13892;DHT22;7016;48.172;8.058;2023-03-21T05:50:12;4.80;99.90
13892;DHT22;7016;48.172;8.058;2023-03-21T05:52:38;4.70;99.90
13892;DHT22;7016;48.172;8.058;2023-03-21T05:55:05;4.80;99.90
13892;DHT22;7016;48.172;8.058;2023-03-21T05:57:31;4.80;99.90
13892;DHT22;7016;48.172;8.058;2023-03-21T06:00:00;4.80;99.90
13892;DHT22;7016;48.172;8.058;2023-03-21T06:02:26;4.70;99.90
13892;DHT22;7016;48.172;8.058;2023-03-21T06:04:52;4.90;99.90
13892;DHT22;7016;48.172;8.058;2023-03-21T06:07:21;4.90;99.90
13892;DHT22;7016;48.172;8.058;2023-03-21T06:09:47;5.00;99.90
13892;DHT22;7016;48.172;8.058;2023-03-21T06:12:13;5.10;99.90
13892;DHT22;7016;48.172;8.058;2023-03-21T06:14:39;5.00;99.90
13892;DHT22;7016;48.172;8.058;2023-03-21T06:17:04;5.00;99.90
13892;DHT22;7016;48.172;8.058;2023-03-21T06:19:30;4.80;99.90
13892;DHT22;7016;48.172;8.058;2023-03-21T06:21:56;5.00;99.90
13892;DHT22;7016;48.172;8.058;2023-03-21T06:24:22;5.00;99.90
13892;DHT22;7016;48.172;8.058;2023-03-21T06:26:48;5.10;99.90
13892;DHT22;7016;48.172;8.058;2023-03-21T06:29:13;5.20;99.90
13892;DHT22;7016;48.172;8.058;2023-03-21T06:31:39;5.20;99.90
13892;DHT22;7016;48.172;8.058;2023-03-21T06:34:06;5.30;99.90
13892;DHT22;7016;48.172;8.058;2023-03-21T06:36:32;5.40;99.90
13892;DHT22;7016;48.172;8.058;2023-03-21T06:38:58;5.50;99.90
13892;DHT22;7016;48.172;8.058;2023-03-21T06:41:23;5.50;99.90
13892;DHT22;7016;48.172;8.058;2023-03-21T06:43:49;5.40;99.90
13892;DHT22;7016;48.172;8.058;2023-03-21T06:46:15;5.50;99.90
13892;DHT22;7016;48.172;8.058;2023-03-21T06:48:41;5.50;99.90
13892;DHT22;7016;48.172;8.058;2023-03-21T06:51:11;5.60;99.90
13892;DHT22;7016;48.172;8.058;2023-03-21T06:53:37;5.70;99.90
13892;DHT22;7016;48.172;8.058;2023-03-21T06:56:03;5.70;99.90
13892;DHT22;7016;48.172;8.058;2023-03-21T06:58:28;5.70;99.90
13892;DHT22;7016;48.172;8.058;2023-03-21T07:00:58;5.80;99.90
13892;DHT22;7016;48.172;8.058;2023-03-21T07:03:24;5.90;99.90
13892;DHT22;7016;48.172;8.058;2023-03-21T07:05:50;6.10;99.90
13892;DHT22;7016;48.172;8.058;2023-03-21T07:08:16;6.10;99.90
13892;DHT22;7016;48.172;8.058;2023-03-21T07:10:43;6.20;99.90
13892;DHT22;7016;48.172;8.058;2023-03-21T07:13:10;6.40;99.90
13892;DHT22;7016;48.172;8.058;2023-03-21T07:15:36;6.50;99.90
13892;DHT22;7016;48.172;8.058;2023-03-21T07:18:04;6.50;99.90
13892;DHT22;7016;48.172;8.058;2023-03-21T07:20:30;6.70;99.90
13892;DHT22;7016;48.172;8.058;2023-03-21T07:22:56;6.70;99.90
13892;DHT22;7016;48.172;8.058;2023-03-21T07:25:22;6.90;99.90
13892;DHT22;7016;48.172;8.058;2023-03-21T07:27:49;6.90;99.90
13892;DHT22;7016;48.172;8.058;2023-03-21T07:30:15;7.00;99.90
13892;DHT22;7016;48.172;8.058;2023-03-21T07:32:41;7.10;99.90
13892;DHT22;7016;48.172;8.058;2023-03-21T07:35:11;7.20;99.90
13892;DHT22;7016;48.172;8.058;2023-03-21T07:37:38;7.30;99.90
13892;DHT22;7016;48.172;8.058;2023-03-21T07:40:04;7.30;99.90
13892;DHT22;7016;48.172;8.058;2023-03-21T07:42:38;7.40;99.90
13892;DHT22;7016;48.172;8.058;2023-03-21T07:45:05;7.50;99.90
13892;DHT22;7016;48.172;8.058;2023-03-21T07:47:33;7.60;99.90
13892;DHT22;7016;48.172;8.058;2023-03-21T07:49:59;7.60;99.90
13892;DHT22;7016;48.172;8.058;2023-03-21T07:52:25;7.70;99.90
13892;DHT22;7016;48.172;8.058;2023-03-21T07:54:51;7.80;99.90
13892;DHT22;7016;48.172;8.058;2023-03-21T07:57:17;7.80;99.90
13892;DHT22;7016;48.172;8.058;2023-03-21T07:59:43;7.90;99.90
13892;DHT22;7016;48.172;8.058;2023-03-21T08:02:16;7.90;99.90
13892;DHT22;7016;48.172;8.058;2023-03-21T08:04:43;8.10;99.90
13892;DHT22;7016;48.172;8.058;2023-03-21T08:07:09;8.10;99.90
13892;DHT22;7016;48.172;8.058;2023-03-21T08:09:35;8.20;99.90
13892;DHT22;7016;48.172;8.058;2023-03-21T08:12:02;8.30;99.90
13892;DHT22;7016;48.172;8.058;2023-03-21T08:14:28;8.40;99.90
13892;DHT22;7016;48.172;8.058;2023-03-21T08:16:54;8.40;99.90
13892;DHT22;7016;48.172;8.058;2023-03-21T08:19:20;8.50;99.90
13892;DHT22;7016;48.172;8.058;2023-03-21T08:21:49;8.60;99.90
13892;DHT22;7016;48.172;8.058;2023-03-21T08:24:16;8.60;99.90
13892;DHT22;7016;48.172;8.058;2023-03-21T08:26:42;8.70;99.90
13892;DHT22;7016;48.172;8.058;2023-03-21T08:29:08;8.80;99.90
13892;DHT22;7016;48.172;8.058;2023-03-21T08:31:34;8.90;99.90
13892;DHT22;7016;48.172;8.058;2023-03-21T08:34:00;9.00;99.90
13892;DHT22;7016;48.172;8.058;2023-03-21T08:36:26;9.00;99.90
13892;DHT22;7016;48.172;8.058;2023-03-21T08:38:51;9.10;99.90
13892;DHT22;7016;48.172;8.058;2023-03-21T08:41:22;9.20;99.90
13892;DHT22;7016;48.172;8.058;2023-03-21T08:43:50;9.30;99.90
13892;DHT22;7016;48.172;8.058;2023-03-21T08:46:16;9.40;99.90
13892;DHT22;7016;48.172;8.058;2023-03-21T08:48:41;9.40;99.90
13892;DHT22;7016;48.172;8.058;2023-03-21T08:51:07;9.50;99.90
13892;DHT22;7016;48.172;8.058;2023-03-21T08:53:33;9.60;99.90
13892;DHT22;7016;48.172;8.058;2023-03-21T08:55:58;9.60;99.90
13892;DHT22;7016;48.172;8.058;2023-03-21T08:58:24;9.70;99.90
13892;DHT22;7016;48.172;8.058;2023-03-21T09:00:50;9.80;99.90
13892;DHT22;7016;48.172;8.058;2023-03-21T09:03:16;9.80;99.90
13892;DHT22;7016;48.172;8.058;2023-03-21T09:05:42;9.90;99.90
13892;DHT22;7016;48.172;8.058;2023-03-21T09:08:10;9.90;99.90
13892;DHT22;7016;48.172;8.058;2023-03-21T09:10:37;10.00;99.90
13892;DHT22;7016;48.172;8.058;2023-03-21T09:13:03;10.00;99.90
13892;DHT22;7016;48.172;8.058;2023-03-21T09:15:29;10.10;99.90
13892;DHT22;7016;48.172;8.058;2023-03-21T09:17:55;10.10;99.90
13892;DHT22;7016;48.172;8.058;2023-03-21T09:20:24;10.20;99.90
13892;DHT22;7016;48.172;8.058;2023-03-21T09:22:55;10.20;99.90
13892;DHT22;7016;48.172;8.058;2023-03-21T09:25:22;10.30;99.90
13892;DHT22;7016;48.172;8.058;2023-03-21T09:27:49;10.40;99.90
13892;DHT22;7016;48.172;8.058;2023-03-21T09:30:18;10.50;99.90
13892;DHT22;7016;48.172;8.058;2023-03-21T09:32:45;10.60;99.90
13892;DHT22;7016;48.172;8.058;2023-03-21T09:35:18;10.70;99.90
13892;DHT22;7016;48.172;8.058;2023-03-21T09:37:46;10.70;99.90
13892;DHT22;7016;48.172;8.058;2023-03-21T09:43:11;10.90;99.90
13892;DHT22;7016;48.172;8.058;2023-03-21T09:51:14;11.20;99.90
13892;DHT22;7016;48.172;8.058;2023-03-21T09:53:44;11.20;99.90
13892;DHT22;7016;48.172;8.058;2023-03-21T09:56:11;11.30;99.90
13892;DHT22;7016;48.172;8.058;2023-03-21T09:58:39;11.40;99.90
13892;DHT22;7016;48.172;8.058;2023-03-21T10:01:12;11.50;99.90
13892;DHT22;7016;48.172;8.058;2023-03-21T10:03:54;11.70;99.90
13892;DHT22;7016;48.172;8.058;2023-03-21T10:06:21;11.80;99.90
13892;DHT22;7016;48.172;8.058;2023-03-21T10:09:12;11.80;99.90
13892;DHT22;7016;48.172;8.058;2023-03-21T10:12:03;11.90;99.90
13892;DHT22;7016;48.172;8.058;2023-03-21T10:14:43;12.10;99.90
13892;DHT22;7016;48.172;8.058;2023-03-21T10:20:18;12.10;99.90
13892;DHT22;7016;48.172;8.058;2023-03-21T10:22:47;12.20;99.90
13892;DHT22;7016;48.172;8.058;2023-03-21T10:25:20;12.30;99.90
13892;DHT22;7016;48.172;8.058;2023-03-21T10:27:47;12.40;99.90
13892;DHT22;7016;48.172;8.058;2023-03-21T10:30:41;12.40;99.90
13892;DHT22;7016;48.172;8.058;2023-03-21T10:33:13;12.40;99.90
13892;DHT22;7016;48.172;8.058;2023-03-21T10:35:42;12.50;99.90
13892;DHT22;7016;48.172;8.058;2023-03-21T10:38:15;12.50;99.90
13892;DHT22;7016;48.172;8.058;2023-03-21T10:40:42;12.60;99.90
13892;DHT22;7016;48.172;8.058;2023-03-21T10:45:52;12.60;99.90
13892;DHT22;7016;48.172;8.058;2023-03-21T10:48:19;12.70;99.90
13892;DHT22;7016;48.172;8.058;2023-03-21T10:50:48;12.80;99.90
13892;DHT22;7016;48.172;8.058;2023-03-21T10:53:26;12.90;99.90
13892;DHT22;7016;48.172;8.058;2023-03-21T10:55:55;13.00;99.90
13892;DHT22;7016;48.172;8.058;2023-03-21T10:58:26;13.00;99.90
13892;DHT22;7016;48.172;8.058;2023-03-21T11:01:01;13.10;99.90
13892;DHT22;7016;48.172;8.058;2023-03-21T11:03:31;13.20;99.90
13892;DHT22;7016;48.172;8.058;2023-03-21T11:06:07;13.10;99.90
13892;DHT22;7016;48.172;8.058;2023-03-21T11:08:38;13.30;99.90
13892;DHT22;7016;48.172;8.058;2023-03-21T11:11:09;13.40;99.90
13892;DHT22;7016;48.172;8.058;2023-03-21T11:13:42;13.50;99.90
13892;DHT22;7016;48.172;8.058;2023-03-21T11:16:22;13.60;99.90
13892;DHT22;7016;48.172;8.058;2023-03-21T11:18:51;13.70;99.90
13892;DHT22;7016;48.172;8.058;2023-03-21T11:21:17;13.70;99.90
13892;DHT22;7016;48.172;8.058;2023-03-21T11:23:46;13.80;99.90
13892;DHT22;7016;48.172;8.058;2023-03-21T11:26:19;13.90;99.90
13892;DHT22;7016;48.172;8.058;2023-03-21T11:28:49;14.00;99.90
13892;DHT22;7016;48.172;8.058;2023-03-21T11:31:18;13.90;99.90
13892;DHT22;7016;48.172;8.058;2023-03-21T11:33:51;14.00;99.90
13892;DHT22;7016;48.172;8.058;2023-03-21T11:38:43;14.10;99.90
13892;DHT22;7016;48.172;8.058;2023-03-21T11:41:30;14.30;99.90
13892;DHT22;7016;48.172;8.058;2023-03-21T11:43:57;14.30;99.90
13892;DHT22;7016;48.172;8.058;2023-03-21T11:46:26;14.40;99.90
13892;DHT22;7016;48.172;8.058;2023-03-21T11:48:53;14.40;99.90
13892;DHT22;7016;48.172;8.058;2023-03-21T11:51:51;14.40;99.90
13892;DHT22;7016;48.172;8.058;2023-03-21T11:57:17;14.50;99.90
13892;DHT22;7016;48.172;8.058;2023-03-21T12:05:38;14.80;99.90
13892;DHT22;7016;48.172;8.058;2023-03-21T12:22:33;14.80;99.90
13892;DHT22;7016;48.172;8.058;2023-03-21T12:25:13;14.70;99.90
13892;DHT22;7016;48.172;8.058;2023-03-21T12:35:32;14.70;99.90
13892;DHT22;7016;48.172;8.058;2023-03-21T12:40:57;14.80;99.90
13892;DHT22;7016;48.172;8.058;2023-03-21T12:49:37;14.70;99.90
13892;DHT22;7016;48.172;8.058;2023-03-21T12:52:28;14.60;99.90
13892;DHT22;7016;48.172;8.058;2023-03-21T12:55:09;14.70;99.90
13892;DHT22;7016;48.172;8.058;2023-03-21T13:00:40;14.70;99.90
13892;DHT22;7016;48.172;8.058;2023-03-21T13:03:11;14.70;99.90
13892;DHT22;7016;48.172;8.058;2023-03-21T13:05:45;14.70;99.90
13892;DHT22;7016;48.172;8.058;2023-03-21T13:10:43;14.70;99.90
13892;DHT22;7016;48.172;8.058;2023-03-21T13:13:39;14.70;99.90
13892;DHT22;7016;48.172;8.058;2023-03-21T13:19:24;14.70;99.90
13892;DHT22;7016;48.172;8.058;2023-03-21T13:29:45;14.80;99.90
13892;DHT22;7016;48.172;8.058;2023-03-21T13:32:37;14.80;99.90
13892;DHT22;7016;48.172;8.058;2023-03-21T13:35:20;14.80;99.90
13892;DHT22;7016;48.172;8.058;2023-03-21T13:38:00;14.80;99.90
13892;DHT22;7016;48.172;8.058;2023-03-21T13:40:35;14.90;99.90
13892;DHT22;7016;48.172;8.058;2023-03-21T13:43:03;15.00;99.90
13892;DHT22;7016;48.172;8.058;2023-03-21T13:46:14;15.00;99.90
13892;DHT22;7016;48.172;8.058;2023-03-21T13:51:50;15.10;99.90
13892;DHT22;7016;48.172;8.058;2023-03-21T13:57:05;15.20;99.40
13892;DHT22;7016;48.172;8.058;2023-03-21T14:04:55;15.30;99.00
13892;DHT22;7016;48.172;8.058;2023-03-21T14:10:29;15.40;98.70
13892;DHT22;7016;48.172;8.058;2023-03-21T14:12:47;15.40;98.80
13892;DHT22;7016;48.172;8.058;2023-03-21T14:15:30;15.30;97.80
13892;DHT22;7016;48.172;8.058;2023-03-21T14:18:01;15.30;97.70
13892;DHT22;7016;48.172;8.058;2023-03-21T14:20:32;15.30;97.80
13892;DHT22;7016;48.172;8.058;2023-03-21T14:23:03;15.30;98.30
13892;DHT22;7016;48.172;8.058;2023-03-21T14:25:36;15.30;98.10
13892;DHT22;7016;48.172;8.058;2023-03-21T14:28:20;15.30;98.20
13892;DHT22;7016;48.172;8.058;2023-03-21T14:30:55;15.30;98.00
13892;DHT22;7016;48.172;8.058;2023-03-21T14:33:34;15.30;98.70
13892;DHT22;7016;48.172;8.058;2023-03-21T14:36:20;15.30;98.10
13892;DHT22;7016;48.172;8.058;2023-03-21T14:39:22;15.40;98.90
13892;DHT22;7016;48.172;8.058;2023-03-21T14:41:55;15.30;98.80
13892;DHT22;7016;48.172;8.058;2023-03-21T14:44:33;15.30;99.10
13892;DHT22;7016;48.172;8.058;2023-03-21T14:47:07;15.30;99.30
13892;DHT22;7016;48.172;8.058;2023-03-21T14:49:35;15.30;99.60
13892;DHT22;7016;48.172;8.058;2023-03-21T14:52:10;15.40;99.90
13892;DHT22;7016;48.172;8.058;2023-03-21T14:54:43;15.30;99.50
13892;DHT22;7016;48.172;8.058;2023-03-21T14:57:13;15.30;99.70
13892;DHT22;7016;48.172;8.058;2023-03-21T14:59:40;15.40;99.70
13892;DHT22;7016;48.172;8.058;2023-03-21T15:02:17;15.40;99.50
13892;DHT22;7016;48.172;8.058;2023-03-21T15:04:48;15.40;99.50
13892;DHT22;7016;48.172;8.058;2023-03-21T15:07:33;15.40;99.80
13892;DHT22;7016;48.172;8.058;2023-03-21T15:10:03;15.40;99.80
13892;DHT22;7016;48.172;8.058;2023-03-21T15:12:29;15.50;99.60
13892;DHT22;7016;48.172;8.058;2023-03-21T15:14:56;15.50;99.60
13892;DHT22;7016;48.172;8.058;2023-03-21T15:17:23;15.50;99.90
13892;DHT22;7016;48.172;8.058;2023-03-21T15:19:50;15.50;99.70
13892;DHT22;7016;48.172;8.058;2023-03-21T15:22:32;15.50;99.20
13892;DHT22;7016;48.172;8.058;2023-03-21T15:25:04;15.50;99.10
13892;DHT22;7016;48.172;8.058;2023-03-21T15:27:35;15.50;98.80
13892;DHT22;7016;48.172;8.058;2023-03-21T15:30:02;15.50;99.30
13892;DHT22;7016;48.172;8.058;2023-03-21T15:32:28;15.50;99.30
13892;DHT22;7016;48.172;8.058;2023-03-21T15:35:02;15.50;98.70
13892;DHT22;7016;48.172;8.058;2023-03-21T15:37:33;15.50;99.00
13892;DHT22;7016;48.172;8.058;2023-03-21T15:40:15;15.50;99.30
13892;DHT22;7016;48.172;8.058;2023-03-21T15:42:42;15.50;99.40
13892;DHT22;7016;48.172;8.058;2023-03-21T15:45:26;15.40;99.00
13892;DHT22;7016;48.172;8.058;2023-03-21T15:47:54;15.40;99.70
13892;DHT22;7016;48.172;8.058;2023-03-21T15:52:52;15.40;99.50
13892;DHT22;7016;48.172;8.058;2023-03-21T15:55:26;15.40;99.50
13892;DHT22;7016;48.172;8.058;2023-03-21T15:58:07;15.40;99.90
13892;DHT22;7016;48.172;8.058;2023-03-21T16:00:38;15.40;99.90
13892;DHT22;7016;48.172;8.058;2023-03-21T16:03:25;15.30;99.70
13892;DHT22;7016;48.172;8.058;2023-03-21T16:08:41;15.40;99.90
13892;DHT22;7016;48.172;8.058;2023-03-21T16:13:41;15.30;99.90
13892;DHT22;7016;48.172;8.058;2023-03-21T16:16:18;15.30;99.50
13892;DHT22;7016;48.172;8.058;2023-03-21T16:18:44;15.30;99.90
13892;DHT22;7016;48.172;8.058;2023-03-21T16:21:16;15.40;99.90
13892;DHT22;7016;48.172;8.058;2023-03-21T16:23:43;15.50;99.90
13892;DHT22;7016;48.172;8.058;2023-03-21T16:26:22;15.50;99.90
13892;DHT22;7016;48.172;8.058;2023-03-21T16:28:48;15.40;99.90
13892;DHT22;7016;48.172;8.058;2023-03-21T16:31:17;15.40;99.90
13892;DHT22;7016;48.172;8.058;2023-03-21T16:33:44;15.40;99.90
13892;DHT22;7016;48.172;8.058;2023-03-21T16:36:15;15.30;99.90
13892;DHT22;7016;48.172;8.058;2023-03-21T16:38:44;15.30;99.90
13892;DHT22;7016;48.172;8.058;2023-03-21T16:41:14;15.30;99.90
13892;DHT22;7016;48.172;8.058;2023-03-21T16:43:42;15.30;99.90
13892;DHT22;7016;48.172;8.058;2023-03-21T16:46:19;15.40;99.90
13892;DHT22;7016;48.172;8.058;2023-03-21T16:48:48;15.40;99.90
13892;DHT22;7016;48.172;8.058;2023-03-21T16:51:23;15.40;99.90
13892;DHT22;7016;48.172;8.058;2023-03-21T16:53:54;15.40;99.90
13892;DHT22;7016;48.172;8.058;2023-03-21T16:56:33;15.40;99.90
13892;DHT22;7016;48.172;8.058;2023-03-21T16:59:02;15.30;99.90
13892;DHT22;7016;48.172;8.058;2023-03-21T17:01:29;15.30;99.90
13892;DHT22;7016;48.172;8.058;2023-03-21T17:03:55;15.30;99.90
13892;DHT22;7016;48.172;8.058;2023-03-21T17:06:26;15.20;99.90
13892;DHT22;7016;48.172;8.058;2023-03-21T17:08:56;15.20;99.90
13892;DHT22;7016;48.172;8.058;2023-03-21T17:11:24;15.20;99.90
13892;DHT22;7016;48.172;8.058;2023-03-21T17:13:52;15.20;99.90
13892;DHT22;7016;48.172;8.058;2023-03-21T17:16:22;15.20;99.90
13892;DHT22;7016;48.172;8.058;2023-03-21T17:18:49;15.10;99.90
13892;DHT22;7016;48.172;8.058;2023-03-21T17:21:24;15.00;99.90
13892;DHT22;7016;48.172;8.058;2023-03-21T17:23:51;15.00;99.90
13892;DHT22;7016;48.172;8.058;2023-03-21T17:26:22;14.60;99.90
13892;DHT22;7016;48.172;8.058;2023-03-21T17:28:48;14.90;99.90
13892;DHT22;7016;48.172;8.058;2023-03-21T17:31:17;14.80;99.90
13892;DHT22;7016;48.172;8.058;2023-03-21T17:33:43;14.80;99.90
13892;DHT22;7016;48.172;8.058;2023-03-21T17:36:32;14.80;99.90
13892;DHT22;7016;48.172;8.058;2023-03-21T17:38:58;14.70;99.90
13892;DHT22;7016;48.172;8.058;2023-03-21T17:41:25;14.70;99.90
13892;DHT22;7016;48.172;8.058;2023-03-21T17:43:52;14.70;99.90
13892;DHT22;7016;48.172;8.058;2023-03-21T17:46:19;14.60;99.90
13892;DHT22;7016;48.172;8.058;2023-03-21T17:48:47;14.50;99.90
13892;DHT22;7016;48.172;8.058;2023-03-21T17:51:13;14.50;99.90
13892;DHT22;7016;48.172;8.058;2023-03-21T17:53:49;14.50;99.90
13892;DHT22;7016;48.172;8.058;2023-03-21T17:56:28;14.50;99.90
13892;DHT22;7016;48.172;8.058;2023-03-21T17:58:59;14.30;99.90
13892;DHT22;7016;48.172;8.058;2023-03-21T18:01:25;14.40;99.90
13892;DHT22;7016;48.172;8.058;2023-03-21T18:03:51;14.30;99.90
13892;DHT22;7016;48.172;8.058;2023-03-21T18:06:21;14.40;99.90
13892;DHT22;7016;48.172;8.058;2023-03-21T18:08:48;14.30;99.90
13892;DHT22;7016;48.172;8.058;2023-03-21T18:11:15;14.30;99.90
13892;DHT22;7016;48.172;8.058;2023-03-21T18:13:42;14.30;99.90
13892;DHT22;7016;48.172;8.058;2023-03-21T18:16:12;14.30;99.90